Time;durP1;ratioP1;P1;durP2;ratioP2;P2;SDS_P1;SDS_P2;PMS_P1;PMS_P2;Temp;Humidity;BMP_temperature;BMP_pressure;BME280_temperature;BME280_humidity;BME280_pressure;Samples;Min_cycle;Max_cycle;Signal;HPM_P1;HPM_P2
2023/09/16 00:02:23;;;;;;;3.33;1.30;;;;;;;18.53;82.45;101107.63;4990289;28;20022;-65
2023/09/16 00:04:51;;;;;;;3.92;1.52;;;;;;;18.53;82.37;101107.63;4989969;28;20034;-64
2023/09/16 00:07:16;;;;;;;1.50;0.95;;;;;;;18.55;82.42;101104.50;4988738;28;20045;-64
2023/09/16 00:09:41;;;;;;;3.28;1.48;;;;;;;18.55;82.20;101099.03;4993140;28;20022;-65
2023/09/16 00:12:28;;;;;;;2.58;1.75;;;;;;;18.55;82.25;101102.56;4992358;28;20034;-66
2023/09/16 00:14:53;;;;;;;1.83;1.20;;;;;;;18.56;82.15;101093.19;4962281;28;20035;-64
2023/09/16 00:17:19;;;;;;;2.58;1.30;;;;;;;18.47;82.59;101089.34;4965376;28;20045;-65
2023/09/16 00:19:44;;;;;;;1.58;1.02;;;;;;;18.45;82.88;101088.97;4967463;28;20054;-64
2023/09/16 00:22:10;;;;;;;3.00;1.00;;;;;;;18.43;83.48;101097.53;4964236;28;20081;-65
2023/09/16 00:24:40;;;;;;;1.95;1.23;;;;;;;18.35;83.76;101097.97;4965991;28;20122;-63
2023/09/16 00:27:26;;;;;;;1.80;1.13;;;;;;;18.40;83.81;101100.25;4962217;28;20068;-63
2023/09/16 00:29:52;;;;;;;3.25;1.33;;;;;;;18.44;83.22;101099.13;4917266;29;20079;-63
2023/09/16 00:32:17;;;;;;;2.08;1.20;;;;;;;18.44;83.30;101101.84;4933051;29;20039;-63
2023/09/16 00:34:43;;;;;;;2.63;1.42;;;;;;;18.43;83.56;101091.31;4929014;29;20131;-64
2023/09/16 00:37:08;;;;;;;2.72;1.45;;;;;;;18.41;83.75;101088.16;4936833;29;20100;-65
2023/09/16 00:39:34;;;;;;;1.55;1.30;;;;;;;18.37;84.04;101085.47;4916850;29;20043;-64
2023/09/16 00:41:59;;;;;;;1.60;1.05;;;;;;;18.36;84.06;101075.75;4916221;29;20525;-65
2023/09/16 00:44:25;;;;;;;2.15;1.10;;;;;;;18.38;84.01;101076.13;4931375;29;20040;-64
2023/09/16 00:46:50;;;;;;;1.85;1.23;;;;;;;18.32;84.27;101066.00;4933082;29;20098;-64
2023/09/16 00:49:16;;;;;;;1.85;1.30;;;;;;;18.31;84.28;101069.91;4916485;29;20040;-64
2023/09/16 00:51:44;;;;;;;1.42;0.98;;;;;;;18.26;84.53;101071.09;4903038;29;20131;-64
2023/09/16 00:54:10;;;;;;;1.50;1.08;;;;;;;18.27;84.31;101066.44;4899111;29;20504;-64
2023/09/16 00:56:36;;;;;;;2.10;1.40;;;;;;;18.08;85.59;101075.09;4908695;29;20475;-63
2023/09/16 00:59:02;;;;;;;1.63;1.35;;;;;;;18.14;85.26;101071.53;4908752;29;20041;-63
2023/09/16 01:01:29;;;;;;;1.75;1.13;;;;;;;18.02;85.94;101075.47;4889390;29;20043;-66
2023/09/16 01:03:56;;;;;;;0.73;0.73;;;;;;;17.96;86.58;101082.50;4911267;29;20449;-64
2023/09/16 01:06:22;;;;;;;2.80;1.65;;;;;;;17.95;86.49;101078.22;4926479;28;20045;-64
2023/09/16 01:08:47;;;;;;;2.50;1.10;;;;;;;17.93;86.79;101066.94;4991828;28;20472;-63
2023/09/16 01:11:13;;;;;;;1.85;1.27;;;;;;;17.88;86.23;101070.09;4990963;28;20716;-64
2023/09/16 01:13:39;;;;;;;1.42;1.10;;;;;;;17.88;86.95;101064.63;4991318;28;20508;-64
2023/09/16 01:16:15;;;;;;;3.10;0.98;;;;;;;17.92;87.02;101051.00;4991388;28;20018;-64
2023/09/16 01:18:46;;;;;;;2.15;1.17;;;;;;;17.96;86.66;101057.97;4992067;28;20046;-64
2023/09/16 01:21:14;;;;;;;2.25;1.23;;;;;;;17.87;87.01;101060.34;4988527;28;20415;-64
2023/09/16 01:23:39;;;;;;;1.58;1.30;;;;;;;17.86;87.18;101058.00;4985848;28;20033;-64
2023/09/16 01:26:05;;;;;;;3.10;1.52;;;;;;;17.88;87.14;101056.47;4988141;28;20042;-64
2023/09/16 01:28:31;;;;;;;1.50;1.08;;;;;;;17.78;87.50;101048.28;4992158;28;20065;-64
2023/09/16 01:30:58;;;;;;;1.85;1.23;;;;;;;17.77;87.44;101061.13;4983714;28;20018;-63
2023/09/16 01:33:43;;;;;;;2.60;1.55;;;;;;;17.69;87.31;101048.69;4988373;28;20565;-65
2023/09/16 01:36:18;;;;;;;1.90;1.20;;;;;;;17.59;88.45;101046.00;4983630;28;20041;-64
2023/09/16 01:38:46;;;;;;;1.95;1.25;;;;;;;17.51;88.19;101044.47;4987777;28;20109;-66
2023/09/16 01:41:13;;;;;;;1.23;0.90;;;;;;;17.49;88.82;101041.34;4991162;28;20033;-64
2023/09/16 01:43:39;;;;;;;2.08;1.33;;;;;;;17.59;88.48;101041.34;4988876;28;20105;-65
2023/09/16 01:46:04;;;;;;;2.05;1.15;;;;;;;17.55;88.62;101043.28;4983409;28;20142;-63
2023/09/16 01:48:30;;;;;;;3.28;1.27;;;;;;;17.52;88.50;101049.50;4991210;28;20043;-64
2023/09/16 01:50:56;;;;;;;1.77;1.15;;;;;;;17.48;88.88;101048.75;4991658;28;20105;-65
2023/09/16 01:53:21;;;;;;;1.08;0.95;;;;;;;17.47;88.53;101054.56;4991008;28;20125;-64
2023/09/16 01:55:47;;;;;;;1.83;1.15;;;;;;;17.42;88.77;101061.16;4988023;28;20105;-64
2023/09/16 01:58:12;;;;;;;2.13;1.42;;;;;;;17.40;88.50;101055.31;4982436;28;20026;-63
2023/09/16 02:00:38;;;;;;;1.80;1.33;;;;;;;17.44;88.49;101060.78;4990298;28;20132;-64
2023/09/16 02:03:03;;;;;;;1.55;1.23;;;;;;;17.43;88.50;101062.72;4991645;28;20035;-64
2023/09/16 02:05:30;;;;;;;1.60;1.25;;;;;;;17.50;88.75;101051.09;4983804;28;20054;-64
2023/09/16 02:07:57;;;;;;;2.35;1.42;;;;;;;17.53;88.53;101039.41;4990279;28;20081;-63
2023/09/16 02:10:23;;;;;;;4.05;1.65;;;;;;;17.50;89.03;101043.69;4990603;28;20037;-64
2023/09/16 02:12:48;;;;;;;2.38;1.38;;;;;;;17.48;89.62;101034.34;4990486;28;20479;-64
2023/09/16 02:15:14;;;;;;;2.13;1.42;;;;;;;17.56;89.36;101031.22;4988765;28;20076;-63
2023/09/16 02:17:40;;;;;;;8.25;1.80;;;;;;;17.59;89.44;101021.50;4991201;28;20708;-64
2023/09/16 02:20:09;;;;;;;1.65;1.52;;;;;;;17.59;89.76;101032.38;4990228;28;20038;-64
2023/09/16 02:22:35;;;;;;;3.92;1.58;;;;;;;17.61;89.67;101021.88;4989805;28;20045;-65
2023/09/16 02:25:00;;;;;;;1.90;1.65;;;;;;;17.59;89.40;101021.50;4981719;28;20026;-64
2023/09/16 02:27:26;;;;;;;1.77;1.30;;;;;;;17.57;89.55;101018.38;4984947;28;20042;-63
2023/09/16 02:29:51;;;;;;;2.67;1.50;;;;;;;17.52;89.78;101022.28;4985263;28;20026;-63
2023/09/16 02:32:18;;;;;;;2.08;1.38;;;;;;;17.47;89.92;101028.09;4977115;28;20026;-63
2023/09/16 02:34:43;;;;;;;2.05;1.60;;;;;;;17.42;89.29;101027.72;4980202;28;20108;-63
2023/09/16 02:37:08;;;;;;;2.03;1.50;;;;;;;17.27;89.79;101029.69;4990927;28;20042;-61
2023/09/16 02:39:34;;;;;;;2.45;1.67;;;;;;;17.18;90.22;101029.31;4987658;28;20045;-64
2023/09/16 02:42:00;;;;;;;3.60;1.70;;;;;;;17.10;90.30;101022.31;4986571;28;20034;-64
2023/09/16 02:44:30;;;;;;;2.83;1.30;;;;;;;17.10;90.51;101027.75;4984219;28;20100;-64
2023/09/16 02:46:55;;;;;;;4.47;1.42;;;;;;;17.12;90.79;101025.41;4998981;28;20038;-62
2023/09/16 02:49:21;;;;;;;2.95;1.75;;;;;;;17.12;90.76;101017.25;4988748;28;20014;-64
2023/09/16 02:51:46;;;;;;;2.17;1.23;;;;;;;17.10;90.73;101011.41;4988856;28;20065;-64
2023/09/16 02:54:12;;;;;;;2.40;1.40;;;;;;;17.09;90.52;101010.63;4985819;28;20081;-64
2023/09/16 02:56:37;;;;;;;1.88;1.35;;;;;;;17.10;90.65;101011.41;4984432;28;20030;-64
2023/09/16 02:59:04;;;;;;;2.00;1.55;;;;;;;17.06;91.09;101002.47;4981604;28;20042;-64
2023/09/16 03:01:30;;;;;;;4.32;2.00;;;;;;;16.95;91.43;101001.69;4989344;28;20042;-64
2023/09/16 03:03:55;;;;;;;1.77;1.40;;;;;;;16.94;91.17;100995.47;4967414;28;20542;-64
2023/09/16 03:06:22;;;;;;;2.95;1.70;;;;;;;16.93;91.52;100998.59;4989048;28;20034;-64
2023/09/16 03:08:48;;;;;;;2.10;1.45;;;;;;;16.94;91.22;100991.97;4989589;28;20034;-64
2023/09/16 03:11:14;;;;;;;2.33;1.52;;;;;;;16.95;91.38;100994.31;4989189;28;20017;-63
2023/09/16 03:13:42;;;;;;;2.20;1.50;;;;;;;17.03;90.93;101001.28;4988307;28;20486;-63
2023/09/16 03:16:20;;;;;;;2.97;1.55;;;;;;;17.03;91.21;100998.56;4980979;28;20062;-64
2023/09/16 03:18:51;;;;;;;1.95;1.42;;;;;;;16.97;90.97;100992.00;4990168;28;20042;-65
2023/09/16 03:21:18;;;;;;;4.25;1.83;;;;;;;17.00;91.35;100982.25;4993220;28;20125;-64
2023/09/16 03:23:45;;;;;;;1.45;1.35;;;;;;;16.96;91.31;100982.25;4990709;28;20022;-64
2023/09/16 03:26:32;;;;;;;2.08;1.33;;;;;;;17.00;91.15;100984.97;4987205;28;20026;-66
2023/09/16 03:28:58;;;;;;;3.00;1.55;;;;;;;16.94;91.69;100992.75;4956600;28;20042;-64
2023/09/16 03:31:28;;;;;;;3.50;1.40;;;;;;;16.93;91.74;100995.88;4956813;28;20041;-65
2023/09/16 03:33:56;;;;;;;1.90;1.42;;;;;;;16.94;91.60;100990.03;4951941;28;20045;-65
2023/09/16 03:36:22;;;;;;;2.42;1.70;;;;;;;16.95;92.12;100983.44;4940578;28;20530;-62
2023/09/16 03:38:51;;;;;;;3.35;1.77;;;;;;;16.95;92.10;100990.81;4956294;28;20435;-63
2023/09/16 03:41:17;;;;;;;2.65;1.27;;;;;;;16.97;92.31;100986.56;4952919;28;20448;-64
2023/09/16 03:43:48;;;;;;;2.25;1.70;;;;;;;16.99;91.99;100986.91;4954390;28;20038;-65
2023/09/16 03:46:13;;;;;;;2.38;1.48;;;;;;;16.92;91.70;100989.66;4972429;28;20777;-62
2023/09/16 03:48:39;;;;;;;1.98;1.60;;;;;;;16.88;91.81;100991.59;4956137;28;20081;-64
2023/09/16 03:51:07;;;;;;;2.20;1.42;;;;;;;16.75;93.08;100990.41;4954708;28;20031;-64
2023/09/16 03:53:34;;;;;;;1.58;1.23;;;;;;;16.68;93.32;100992.38;4954309;28;20069;-64
2023/09/16 03:56:05;;;;;;;2.65;1.92;;;;;;;16.60;93.25;100999.75;4953430;28;20050;-64
2023/09/16 03:58:34;;;;;;;1.25;1.10;;;;;;;16.60;93.19;100977.19;4955769;28;20035;-64
2023/09/16 04:01:00;;;;;;;2.38;1.38;;;;;;;16.60;92.73;100988.06;4964150;28;20042;-64
2023/09/16 04:03:26;;;;;;;2.17;1.60;;;;;;;16.58;92.73;100987.69;4955160;28;20038;-63
2023/09/16 04:05:56;;;;;;;2.15;1.50;;;;;;;16.55;92.47;100993.91;4974002;28;20124;-63
2023/09/16 04:08:22;;;;;;;1.92;1.35;;;;;;;16.50;92.23;100989.63;4988028;28;20049;-63
2023/09/16 04:10:47;;;;;;;2.05;1.52;;;;;;;16.48;93.03;100996.56;4992531;28;20026;-64
2023/09/16 04:13:13;;;;;;;1.38;1.27;;;;;;;16.51;92.62;100985.72;4990100;28;20037;-62
2023/09/16 04:15:39;;;;;;;3.42;1.50;;;;;;;16.50;92.38;100992.34;4983081;28;20046;-63
2023/09/16 04:18:05;;;;;;;3.00;2.10;;;;;;;16.45;92.72;100986.47;4993502;28;20026;-63
2023/09/16 04:20:30;;;;;;;2.00;1.20;;;;;;;16.46;92.85;100993.44;4993449;28;20380;-64
2023/09/16 04:22:55;;;;;;;2.58;1.45;;;;;;;16.48;92.72;100991.94;4987972;28;20034;-66
2023/09/16 04:25:22;;;;;;;2.80;1.48;;;;;;;16.44;92.83;100995.78;4986447;28;20025;-64
2023/09/16 04:27:47;;;;;;;1.95;1.60;;;;;;;16.49;92.50;100995.44;4992727;28;20042;-64
2023/09/16 04:30:13;;;;;;;2.25;1.38;;;;;;;16.48;92.75;100991.13;4989924;28;20041;-64
2023/09/16 04:32:40;;;;;;;1.42;1.30;;;;;;;16.56;93.03;100987.28;4987413;28;20128;-64
2023/09/16 04:35:06;;;;;;;2.38;1.50;;;;;;;16.51;92.93;100984.97;4986422;28;20034;-64
2023/09/16 04:37:32;;;;;;;3.90;1.50;;;;;;;16.55;93.32;100983.78;4992038;28;20539;-63
2023/09/16 04:39:58;;;;;;;6.60;1.75;;;;;;;16.56;93.12;100981.84;4986156;28;20503;-63
2023/09/16 04:42:30;;;;;;;2.13;1.70;;;;;;;16.59;92.96;100986.53;4989370;28;20030;-63
2023/09/16 04:44:55;;;;;;;2.22;1.85;;;;;;;16.53;93.72;100974.47;4987882;28;20523;-63
2023/09/16 04:47:21;;;;;;;1.90;1.45;;;;;;;16.59;93.63;100978.38;4982631;28;20027;-63
2023/09/16 04:49:48;;;;;;;2.45;1.55;;;;;;;16.65;93.46;100976.81;4980133;28;20411;-64
2023/09/16 04:52:14;;;;;;;3.65;1.95;;;;;;;16.61;93.74;100984.19;4993149;28;20030;-63
2023/09/16 04:54:40;;;;;;;1.70;1.05;;;;;;;16.66;93.42;100972.94;4986879;28;20399;-64
2023/09/16 04:57:06;;;;;;;3.40;1.52;;;;;;;16.69;93.33;100970.22;4982476;28;20034;-64
2023/09/16 04:59:32;;;;;;;1.70;1.38;;;;;;;16.69;93.22;100966.72;4990976;28;20399;-63
2023/09/16 05:02:00;;;;;;;2.55;1.58;;;;;;;16.68;93.26;100973.31;4985112;28;20027;-64
2023/09/16 05:04:25;;;;;;;3.72;1.95;;;;;;;16.67;93.51;100974.47;5003549;28;20471;-63
2023/09/16 05:06:50;;;;;;;1.90;1.55;;;;;;;16.66;93.96;100971.00;4990875;28;20042;-64
2023/09/16 05:09:20;;;;;;;3.92;1.67;;;;;;;16.55;94.54;100978.34;4985893;28;20029;-64
2023/09/16 05:11:45;;;;;;;1.70;1.33;;;;;;;16.52;94.72;100975.63;4986903;28;20026;-65
2023/09/16 05:14:11;;;;;;;1.63;1.25;;;;;;;16.50;94.69;100972.53;4985559;28;20097;-64
2023/09/16 05:16:37;;;;;;;2.53;1.45;;;;;;;16.54;94.26;100973.31;4988719;28;20041;-64
2023/09/16 05:19:06;;;;;;;1.90;1.50;;;;;;;16.54;93.99;100971.38;4989125;28;20487;-64
2023/09/16 05:21:32;;;;;;;1.40;1.30;;;;;;;16.56;94.34;100974.47;4990899;28;20129;-63
2023/09/16 05:23:57;;;;;;;2.67;1.75;;;;;;;16.61;94.14;100974.09;4988390;28;20034;-63
2023/09/16 05:26:25;;;;;;;3.45;1.95;;;;;;;16.63;94.05;100979.91;4986278;28;20034;-63
2023/09/16 05:28:50;;;;;;;2.15;1.30;;;;;;;16.62;94.70;100978.38;4987503;28;20034;-64
2023/09/16 05:31:17;;;;;;;2.03;1.40;;;;;;;16.66;94.68;100970.22;4990475;28;20022;-64
2023/09/16 05:33:43;;;;;;;3.45;1.50;;;;;;;16.70;94.77;100977.22;4983492;28;20591;-65
2023/09/16 05:36:08;;;;;;;2.35;1.48;;;;;;;16.73;94.56;100986.53;4981436;28;20121;-63
2023/09/16 05:38:34;;;;;;;1.52;1.33;;;;;;;16.79;94.44;100979.53;4986868;28;20100;-64
2023/09/16 05:40:59;;;;;;;2.38;1.60;;;;;;;16.79;94.75;100988.47;4972354;28;20071;-64
2023/09/16 05:43:26;;;;;;;2.55;1.67;;;;;;;16.76;94.90;100986.53;4988897;28;20537;-64
2023/09/16 05:45:52;;;;;;;3.85;1.80;;;;;;;16.78;95.14;100989.63;4990357;28;20105;-64
2023/09/16 05:48:18;;;;;;;2.75;1.58;;;;;;;16.80;95.05;100975.66;4987049;28;20038;-63
2023/09/16 05:50:45;;;;;;;5.28;1.50;;;;;;;16.85;95.07;100976.06;4989696;28;20018;-64
2023/09/16 05:53:11;;;;;;;2.58;1.38;;;;;;;16.90;94.96;100980.31;4981885;28;20076;-65
2023/09/16 05:55:38;;;;;;;2.65;1.60;;;;;;;16.92;94.97;100980.69;4988448;28;20022;-63
2023/09/16 05:58:11;;;;;;;4.07;1.63;;;;;;;16.90;94.67;100983.03;4980223;28;20406;-64
2023/09/16 06:00:37;;;;;;;3.30;1.58;;;;;;;16.92;95.10;100978.75;4985819;28;20475;-64
2023/09/16 06:03:03;;;;;;;2.28;1.60;;;;;;;16.92;95.18;100975.25;4980393;28;20034;-63
2023/09/16 06:05:29;;;;;;;3.35;1.48;;;;;;;16.95;94.92;100977.22;4986114;28;20036;-63
2023/09/16 06:07:55;;;;;;;4.30;1.80;;;;;;;16.99;95.18;100975.28;4983494;28;20022;-63
2023/09/16 06:10:20;;;;;;;2.38;1.50;;;;;;;17.05;95.21;100979.16;4984150;28;20122;-65
2023/09/16 06:12:47;;;;;;;1.92;1.20;;;;;;;17.13;94.81;100977.97;4988358;28;20022;-64
2023/09/16 06:15:12;;;;;;;2.13;1.27;;;;;;;17.15;94.82;100979.13;4984305;28;20094;-64
2023/09/16 06:17:38;;;;;;;4.22;1.65;;;;;;;17.19;94.66;100981.84;4984073;28;20097;-64
2023/09/16 06:20:05;;;;;;;1.65;1.27;;;;;;;17.22;94.30;100981.06;4984327;28;20038;-63
2023/09/16 06:22:30;;;;;;;2.53;1.60;;;;;;;17.26;94.26;100981.84;4980857;28;20030;-65
2023/09/16 06:24:56;;;;;;;3.25;1.73;;;;;;;17.31;94.39;100991.53;4985065;28;20034;-65
2023/09/16 06:27:22;;;;;;;3.45;1.95;;;;;;;17.36;93.95;100981.06;4989835;28;20542;-63
2023/09/16 06:29:48;;;;;;;1.92;1.42;;;;;;;17.33;94.40;100984.56;4989840;28;20026;-65
2023/09/16 06:32:15;;;;;;;2.33;1.58;;;;;;;17.38;94.85;100984.13;4988750;28;20402;-64
2023/09/16 06:34:40;;;;;;;1.58;1.35;;;;;;;17.42;94.36;100982.19;4988973;28;20041;-65
2023/09/16 06:37:06;;;;;;;2.95;1.38;;;;;;;17.49;94.67;100986.88;4989369;28;20034;-65
2023/09/16 06:39:33;;;;;;;2.28;1.60;;;;;;;17.53;94.14;100983.00;4985411;28;20078;-64
2023/09/16 06:41:59;;;;;;;5.75;2.75;;;;;;;17.57;94.42;100972.88;4984111;28;20506;-65
2023/09/16 06:44:31;;;;;;;2.42;1.65;;;;;;;17.55;94.94;100986.09;4981355;28;20646;-65
2023/09/16 06:46:57;;;;;;;3.88;1.88;;;;;;;17.68;94.84;100970.88;4988402;28;20037;-64
2023/09/16 06:49:25;;;;;;;2.05;1.40;;;;;;;17.88;94.25;100971.19;4989329;28;20503;-63
2023/09/16 06:51:51;;;;;;;2.35;1.40;;;;;;;18.12;94.32;100974.97;4987519;28;20042;-65
2023/09/16 06:54:16;;;;;;;2.72;1.67;;;;;;;18.30;93.48;100972.91;4986155;28;20026;-65
2023/09/16 06:56:42;;;;;;;2.38;1.83;;;;;;;18.39;92.84;100975.97;4983743;28;20045;-65
2023/09/16 06:59:07;;;;;;;3.08;1.85;;;;;;;18.48;91.80;100974.38;4990793;28;20022;-65
2023/09/16 07:01:34;;;;;;;1.88;1.77;;;;;;;18.52;91.36;100974.38;4988401;28;20121;-65
2023/09/16 07:03:59;;;;;;;1.95;1.52;;;;;;;18.40;91.03;100970.13;4978984;28;20045;-64
2023/09/16 07:06:25;;;;;;;2.50;1.52;;;;;;;18.56;91.06;100975.13;4985685;28;20030;-64
2023/09/16 07:08:50;;;;;;;2.97;1.52;;;;;;;18.64;90.25;100965.72;4990365;28;20069;-64
2023/09/16 07:11:17;;;;;;;3.90;1.73;;;;;;;18.77;89.93;100970.28;4985872;28;20065;-64
2023/09/16 07:13:46;;;;;;;2.33;1.45;;;;;;;18.85;89.73;100957.34;4988820;28;20426;-64
2023/09/16 07:16:12;;;;;;;2.03;1.27;;;;;;;18.88;89.33;100970.16;4982528;28;20034;-64
2023/09/16 07:18:37;;;;;;;2.08;1.70;;;;;;;19.02;88.88;100974.72;4985376;28;20416;-64
2023/09/16 07:21:03;;;;;;;2.92;1.77;;;;;;;19.06;88.04;100976.25;4990471;28;20101;-64
2023/09/16 07:23:28;;;;;;;2.97;1.83;;;;;;;19.21;88.51;100969.47;4986795;28;20025;-64
2023/09/16 07:26:03;;;;;;;2.15;1.50;;;;;;;19.33;87.21;100979.94;4984502;28;20049;-64
2023/09/16 07:28:28;;;;;;;3.28;1.55;;;;;;;19.40;87.54;100971.66;4984713;28;20029;-63
2023/09/16 07:30:57;;;;;;;3.75;1.55;;;;;;;19.72;86.81;100974.78;4988627;28;20110;-64
2023/09/16 07:33:22;;;;;;;2.42;1.95;;;;;;;20.01;86.43;100979.91;4981608;28;20089;-64
2023/09/16 07:35:49;;;;;;;2.70;1.45;;;;;;;20.28;85.31;100976.06;4984731;28;20034;-64
2023/09/16 07:38:15;;;;;;;2.60;1.35;;;;;;;20.59;84.44;100984.97;4989951;28;20407;-65
2023/09/16 07:40:41;;;;;;;2.33;1.55;;;;;;;;;;4986477;28;20038;-65
2023/09/16 07:43:08;;;;;;;6.85;2.30;;;;;;;20.74;79.17;100988.25;4987051;28;20526;-65
2023/09/16 07:45:34;;;;;;;2.72;2.03;;;;;;;20.48;80.25;100987.88;4989007;28;20022;-63
2023/09/16 07:48:00;;;;;;;2.70;1.77;;;;;;;20.63;78.20;100986.47;4989011;28;20685;-65
2023/09/16 07:50:25;;;;;;;5.63;1.52;;;;;;;20.58;79.28;100988.91;4984372;28;20110;-65
2023/09/16 07:52:51;;;;;;;2.05;1.52;;;;;;;20.80;79.81;100979.16;4989886;28;20023;-64
2023/09/16 07:55:17;;;;;;;3.55;1.60;;;;;;;21.18;78.60;100985.97;4987892;28;20427;-65
2023/09/16 07:57:42;;;;;;;1.88;1.20;;;;;;;21.33;78.61;100986.50;4981773;28;20089;-65
2023/09/16 08:00:08;;;;;;;1.60;1.25;;;;;;;21.26;76.19;100979.19;4984610;28;20018;-65
2023/09/16 08:02:37;;;;;;;2.53;1.52;;;;;;;21.70;76.01;100988.16;4986360;28;20042;-65
2023/09/16 08:05:03;;;;;;;3.47;1.90;;;;;;;21.85;75.18;100995.69;4988246;28;20357;-64
2023/09/16 08:07:29;;;;;;;1.92;1.42;;;;;;;22.11;75.47;100988.47;4991495;28;20026;-65
2023/09/16 08:09:54;;;;;;;1.92;1.70;;;;;;;22.04;71.83;100996.88;4985193;28;20060;-65
2023/09/16 08:12:23;;;;;;;3.30;1.63;;;;;;;21.88;72.82;100994.06;4973071;28;20132;-65
2023/09/16 08:14:48;;;;;;;2.22;1.42;;;;;;;21.83;74.03;100997.31;4992051;28;20038;-65
2023/09/16 08:17:14;;;;;;;2.35;1.77;;;;;;;21.95;75.24;101002.16;4992777;28;20022;-65
2023/09/16 08:19:39;;;;;;;2.30;1.35;;;;;;;22.04;74.79;100996.88;4991512;28;20038;-65
2023/09/16 08:22:05;;;;;;;2.47;1.52;;;;;;;21.89;72.59;100988.16;4987605;28;20399;-65
2023/09/16 08:24:30;;;;;;;2.42;1.63;;;;;;;21.62;73.72;100992.22;4981848;28;20038;-65
2023/09/16 08:26:55;;;;;;;2.05;1.50;;;;;;;21.82;74.04;100991.03;4991155;28;20022;-65
2023/09/16 08:29:21;;;;;;;1.65;1.25;;;;;;;22.14;74.83;100990.38;4992790;28;20447;-66
2023/09/16 08:31:46;;;;;;;1.67;1.15;;;;;;;22.46;73.59;100990.44;4991132;28;20022;-65
2023/09/16 08:34:12;;;;;;;2.50;1.52;;;;;;;22.83;72.04;101000.19;4985676;28;20030;-66
2023/09/16 08:36:37;;;;;;;1.88;1.20;;;;;;;23.08;71.01;100992.09;4993049;28;20460;-66
2023/09/16 08:39:03;;;;;;;2.40;1.40;;;;;;;23.23;69.54;100983.06;4991897;28;20039;-65
2023/09/16 08:41:47;;;;;;;1.80;1.35;;;;;;;22.81;68.64;100984.13;4971208;28;20122;-66
2023/09/16 08:44:14;;;;;;;1.95;1.33;;;;;;;22.93;70.81;100980.69;4986338;28;20050;-66
2023/09/16 08:46:49;;;;;;;1.42;1.15;;;;;;;23.12;71.06;100974.31;4991841;28;20053;-65
2023/09/16 08:49:17;;;;;;;2.28;1.33;;;;;;;23.20;70.14;100983.94;4985067;28;20034;-66
2023/09/16 08:51:46;;;;;;;3.47;1.75;;;;;;;23.27;69.91;100974.69;4990011;28;20033;-65
2023/09/16 08:54:12;;;;;;;1.98;1.52;;;;;;;23.42;69.07;100980.63;4992179;28;20053;-65
2023/09/16 08:56:42;;;;;;;2.92;1.45;;;;;;;23.55;69.23;100976.72;4993012;28;20394;-66
2023/09/16 08:59:08;;;;;;;2.83;1.23;;;;;;;23.66;69.24;100976.41;4992464;28;20034;-66
2023/09/16 09:01:33;;;;;;;3.10;1.40;;;;;;;23.76;69.77;100976.13;4987691;28;20089;-64
2023/09/16 09:03:59;;;;;;;4.03;1.30;;;;;;;23.94;70.39;100964.59;4984034;28;20057;-65
2023/09/16 09:06:26;;;;;;;1.83;1.15;;;;;;;24.19;68.95;100970.16;4992372;28;20049;-66
2023/09/16 09:08:52;;;;;;;2.47;1.38;;;;;;;24.15;66.46;100966.75;4991002;28;20394;-65
2023/09/16 09:11:19;;;;;;;2.97;1.60;;;;;;;24.34;66.20;100965.75;4988464;28;20116;-65
2023/09/16 09:13:49;;;;;;;2.08;1.35;;;;;;;24.53;64.94;100977.75;4969050;28;20026;-65
2023/09/16 09:16:16;;;;;;;3.35;1.48;;;;;;;24.86;64.70;100976.28;4991202;28;20109;-66
2023/09/16 09:18:44;;;;;;;2.22;1.30;;;;;;;25.06;63.33;100987.84;4989583;28;20045;-64
2023/09/16 09:21:10;;;;;;;2.05;1.60;;;;;;;24.97;63.92;100985.75;4991398;28;20048;-64
2023/09/16 09:23:36;;;;;;;1.58;1.13;;;;;;;25.31;63.47;100989.72;4990245;28;20065;-64
2023/09/16 09:26:01;;;;;;;1.50;0.93;;;;;;;25.60;62.24;100982.78;4986758;28;20038;-65
2023/09/16 09:28:28;;;;;;;1.15;0.98;;;;;;;25.89;60.29;100982.50;4982079;28;20027;-65
2023/09/16 09:30:57;;;;;;;2.13;1.27;;;;;;;26.16;59.42;100979.94;4988542;28;20042;-66
2023/09/16 09:33:26;;;;;;;1.55;1.20;;;;;;;26.09;57.95;100979.44;4986267;28;20037;-65
2023/09/16 09:36:09;;;;;;;1.88;1.20;;;;;;;26.33;58.67;100977.69;4983869;28;20818;-66
2023/09/16 09:38:38;;;;;;;2.05;1.08;;;;;;;26.55;57.25;100967.31;4985720;28;20117;-66
2023/09/16 09:41:04;;;;;;;1.17;0.98;;;;;;;26.68;57.92;100968.75;4987851;28;20098;-66
2023/09/16 09:43:30;;;;;;;2.47;1.45;;;;;;;26.84;56.74;100972.47;4984362;28;20484;-65
2023/09/16 09:45:55;;;;;;;1.23;1.05;;;;;;;26.99;56.80;100965.13;4982507;28;20088;-65
2023/09/16 09:48:21;;;;;;;3.65;1.33;;;;;;;26.98;56.65;100955.31;4986659;28;20030;-65
2023/09/16 09:50:46;;;;;;;2.10;1.20;;;;;;;26.99;54.73;100954.06;4975255;28;20035;-65
2023/09/16 09:53:12;;;;;;;1.83;1.00;;;;;;;26.88;57.28;100953.75;4984317;28;20057;-64
2023/09/16 09:55:39;;;;;;;1.77;1.35;;;;;;;27.02;56.45;100953.94;4983073;28;20029;-65
2023/09/16 09:58:25;;;;;;;1.50;1.00;;;;;;;27.05;56.31;100955.78;4981780;28;20042;-65
2023/09/16 10:00:51;;;;;;;1.42;1.10;;;;;;;26.72;56.81;100950.03;4964194;28;20102;-65
2023/09/16 10:03:18;;;;;;;2.00;1.30;;;;;;;26.44;55.03;100945.63;4964490;28;20495;-63
2023/09/16 10:05:43;;;;;;;2.05;0.95;;;;;;;26.38;56.46;100950.25;4963693;28;20059;-64
2023/09/16 10:08:09;;;;;;;2.60;1.05;;;;;;;26.72;56.51;100950.03;4965467;28;20054;-65
2023/09/16 10:10:36;;;;;;;1.73;1.13;;;;;;;26.91;56.27;100947.28;4960941;28;20042;-66
2023/09/16 10:13:02;;;;;;;1.48;1.02;;;;;;;27.00;55.50;100945.31;4963989;28;20130;-65
2023/09/16 10:15:47;;;;;;;5.38;1.45;;;;;;;27.11;55.48;100955.91;4967789;28;20038;-65
2023/09/16 10:18:13;;;;;;;1.98;1.17;;;;;;;27.00;54.09;100950.09;4968064;28;20081;-65
2023/09/16 10:20:45;;;;;;;1.15;0.90;;;;;;;27.00;54.88;100948.09;4960527;28;20027;-65
2023/09/16 10:23:11;;;;;;;1.75;1.17;;;;;;;27.15;54.88;100937.94;4961528;28;20088;-64
2023/09/16 10:25:36;;;;;;;3.63;1.17;;;;;;;26.67;54.56;100944.34;4956272;28;20046;-66
2023/09/16 10:28:04;;;;;;;2.55;1.20;;;;;;;26.63;56.56;100938.94;4963126;28;20133;-65
2023/09/16 10:30:31;;;;;;;2.42;1.30;;;;;;;26.75;57.16;100940.06;4962548;28;20578;-66
2023/09/16 10:33:01;;;;;;;1.92;1.58;;;;;;;26.98;57.72;100949.78;4956528;28;20122;-64
2023/09/16 10:35:30;;;;;;;3.13;1.70;;;;;;;27.18;56.61;100933.47;4961296;28;20094;-65
2023/09/16 10:37:58;;;;;;;2.58;1.52;;;;;;;27.30;53.61;100932.53;4974064;28;20511;-65
2023/09/16 10:40:25;;;;;;;2.65;1.70;;;;;;;27.18;52.10;100942.53;4984560;28;20396;-65
2023/09/16 10:43:12;;;;;;;2.17;1.33;;;;;;;27.29;51.94;100929.00;4985370;28;20136;-63
2023/09/16 10:45:38;;;;;;;7.07;1.92;;;;;;;27.11;51.44;100936.56;4943972;28;20047;-65
2023/09/16 10:48:04;;;;;;;3.53;1.80;;;;;;;27.05;51.91;100939.16;4948219;28;20516;-64
2023/09/16 10:50:36;;;;;;;3.13;1.95;;;;;;;27.11;51.49;100931.03;4945019;28;20052;-64
2023/09/16 10:53:02;;;;;;;4.38;2.72;;;;;;;26.93;52.56;100937.31;4948516;28;20116;-64
2023/09/16 10:55:46;;;;;;;2.67;1.63;;;;;;;27.07;52.08;100928.41;4947141;28;20110;-64
2023/09/16 10:58:24;;;;;;;2.08;1.48;;;;;;;27.01;52.26;100935.00;4948999;28;20038;-65
2023/09/16 11:00:56;;;;;;;2.17;1.75;;;;;;;27.22;52.38;100926.56;4948465;28;20130;-65
2023/09/16 11:03:33;;;;;;;1.52;1.13;;;;;;;27.06;52.76;100929.63;4946646;28;20126;-65
2023/09/16 11:06:02;;;;;;;1.83;1.30;;;;;;;27.04;51.87;100925.81;4948354;28;20125;-64
2023/09/16 11:08:28;;;;;;;1.27;1.10;;;;;;;26.92;53.65;100924.72;4930084;29;20090;-64
2023/09/16 11:10:55;;;;;;;1.85;1.15;;;;;;;27.01;54.63;100921.19;4929986;29;20511;-64
2023/09/16 11:13:23;;;;;;;3.00;1.40;;;;;;;26.96;54.93;100919.81;4922897;29;20653;-63
2023/09/16 11:15:48;;;;;;;1.83;1.02;;;;;;;27.11;53.74;100908.91;4947201;29;20578;-64
2023/09/16 11:18:17;;;;;;;3.58;1.50;;;;;;;27.16;54.03;100911.06;4942813;28;20046;-63
2023/09/16 11:20:43;;;;;;;1.65;1.40;;;;;;;27.45;53.65;100922.41;4948283;29;20174;-64
2023/09/16 11:23:12;;;;;;;3.47;1.63;;;;;;;27.26;52.92;100915.34;4971445;28;20125;-64
2023/09/16 11:25:39;;;;;;;2.67;1.70;;;;;;;27.05;54.35;100919.03;4988938;28;20678;-64
2023/09/16 11:28:10;;;;;;;1.92;1.20;;;;;;;27.21;54.78;100918.72;4982294;28;20042;-64